Time;durP1;ratioP1;P1;durP2;ratioP2;P2;SDS_P1;SDS_P2;PMS_P1;PMS_P2;Temp;Humidity;BMP_temperature;BMP_pressure;BME280_temperature;BME280_humidity;BME280_pressure;Samples;Min_cycle;Max_cycle;Signal;HPM_P1;HPM_P2
2022/01/19 00:01:11;;;;;;;78.10;26.08;;;;;;;;;;5070850;28;20040;-67
2022/01/19 00:03:37;;;;;;;81.40;25.75;;;;;;;;;;5069927;28;20051;-67
2022/01/19 00:06:04;;;;;;;70.40;25.63;;;;;;;;;;5070594;28;20076;-67
2022/01/19 00:08:30;;;;;;;73.05;24.58;;;;;;;;;;5070411;28;20037;-67
2022/01/19 00:10:56;;;;;;;65.80;25.35;;;;;;;;;;5069874;28;20379;-67
2022/01/19 00:13:22;;;;;;;66.55;24.90;;;;;;;;;;5070491;28;20075;-67
2022/01/19 00:15:49;;;;;;;77.45;26.88;;;;;;;;;;5072073;28;20063;-67
2022/01/19 00:18:16;;;;;;;72.07;24.70;;;;;;;;;;5070037;28;20044;-67
2022/01/19 00:20:43;;;;;;;74.93;26.05;;;;;;;;;;5070876;28;20041;-67
2022/01/19 00:23:10;;;;;;;68.25;24.27;;;;;;;;;;5070476;28;20055;-67
2022/01/19 00:25:37;;;;;;;75.97;27.25;;;;;;;;;;5065870;28;20570;-67
2022/01/19 00:28:04;;;;;;;71.00;24.65;;;;;;;;;;5067130;28;20056;-67
2022/01/19 00:30:31;;;;;;;56.38;21.10;;;;;;;;;;5050502;28;20043;-67
2022/01/19 00:32:57;;;;;;;71.50;21.35;;;;;;;;;;5049694;28;20055;-67
2022/01/19 00:35:24;;;;;;;61.85;21.95;;;;;;;;;;5050390;28;20048;-67
2022/01/19 00:37:50;;;;;;;57.58;21.70;;;;;;;;;;5050660;28;20052;-67
2022/01/19 00:40:16;;;;;;;61.53;22.35;;;;;;;;;;5066371;28;20041;-67
2022/01/19 00:42:43;;;;;;;60.85;22.80;;;;;;;;;;5050341;28;20044;-67
2022/01/19 00:45:10;;;;;;;62.75;21.90;;;;;;;;;;5050058;28;20128;-67
2022/01/19 00:47:36;;;;;;;64.70;23.25;;;;;;;;;;5049494;28;20037;-67
2022/01/19 00:50:02;;;;;;;66.40;23.92;;;;;;;;;;5049653;28;20052;-67
2022/01/19 00:52:28;;;;;;;71.60;22.98;;;;;;;;;;5050125;28;20044;-67
2022/01/19 00:54:54;;;;;;;66.80;22.40;;;;;;;;;;5049596;28;20464;-67
2022/01/19 00:57:20;;;;;;;73.22;22.05;;;;;;;;;;5083572;28;20049;-67
2022/01/19 00:59:46;;;;;;;64.00;23.08;;;;;;;;;;5050058;28;20045;-67
2022/01/19 01:02:12;;;;;;;71.22;23.10;;;;;;;;;;5049712;28;20052;-67
2022/01/19 01:04:38;;;;;;;59.65;21.23;;;;;;;;;;5049538;28;20057;-67
2022/01/19 01:07:05;;;;;;;64.53;22.48;;;;;;;;;;5049798;28;20045;-67
2022/01/19 01:09:31;;;;;;;83.57;24.67;;;;;;;;;;5049957;28;20041;-67
2022/01/19 01:12:11;;;;;;;66.15;22.83;;;;;;;;;;5049595;28;20491;-67
2022/01/19 01:20:09;;;;;;;74.38;22.90;;;;;;;;;;5083824;28;20518;-67
2022/01/19 01:22:35;;;;;;;67.57;22.13;;;;;;;;;;5050139;28;20548;-67
2022/01/19 01:25:01;;;;;;;71.93;22.65;;;;;;;;;;5049123;28;20107;-67
2022/01/19 01:27:27;;;;;;;76.18;24.52;;;;;;;;;;5050680;28;20061;-67
2022/01/19 01:29:53;;;;;;;62.30;22.38;;;;;;;;;;5049570;28;20041;-67
2022/01/19 01:32:20;;;;;;;75.32;22.92;;;;;;;;;;5049280;28;20049;-67
2022/01/19 01:34:46;;;;;;;81.93;23.83;;;;;;;;;;5049619;28;20085;-67
2022/01/19 01:37:12;;;;;;;74.93;24.25;;;;;;;;;;5083555;28;20722;-67
2022/01/19 01:39:38;;;;;;;64.63;23.00;;;;;;;;;;5049031;28;20124;-67
2022/01/19 01:42:11;;;;;;;69.25;24.02;;;;;;;;;;5049961;28;20123;-67
2022/01/19 01:44:38;;;;;;;75.38;25.02;;;;;;;;;;5083078;28;20143;-67
2022/01/19 01:47:05;;;;;;;91.18;27.55;;;;;;;;;;5048979;28;20098;-67
2022/01/19 01:53:17;;;;;;;76.35;25.23;;;;;;;;;;5049488;28;20041;-67
2022/01/19 01:55:15;;;;;;;62.80;24.80;;;;;;;;;;5082287;28;20044;-67
2022/01/19 01:57:41;;;;;;;64.85;24.95;;;;;;;;;;5049442;28;20036;-67
2022/01/19 02:00:09;;;;;;;70.43;24.25;;;;;;;;;;5049763;28;20696;-67
2022/01/19 02:02:35;;;;;;;61.42;23.02;;;;;;;;;;5051565;28;20566;-67
2022/01/19 02:05:01;;;;;;;62.88;22.80;;;;;;;;;;5053086;28;20391;-67
2022/01/19 02:07:43;;;;;;;59.83;22.67;;;;;;;;;;5053019;28;20047;-67
2022/01/19 02:10:27;;;;;;;76.90;25.63;;;;;;;;;;5068980;28;20052;-67
2022/01/19 02:23:55;;;;;;;78.35;24.38;;;;;;;;;;5085778;28;20107;-67
2022/01/19 02:26:31;;;;;;;69.43;23.80;;;;;;;;;;5062642;28;20087;-67
2022/01/19 02:29:08;;;;;;;66.57;22.88;;;;;;;;;;5072691;28;20084;-67
2022/01/19 02:42:38;;;;;;;72.65;26.40;;;;;;;;;;5106311;28;20102;-67
2022/01/19 02:49:57;;;;;;;68.80;24.23;;;;;;;;;;5106283;28;20455;-67
2022/01/19 02:52:24;;;;;;;77.38;25.23;;;;;;;;;;5072556;28;20084;-67
2022/01/19 02:54:51;;;;;;;68.22;26.17;;;;;;;;;;5071830;28;20084;-67
2022/01/19 02:57:20;;;;;;;63.95;24.55;;;;;;;;;;5072098;28;20080;-67
2022/01/19 03:10:34;;;;;;;71.55;26.40;;;;;;;;;;5105836;28;20150;-67
2022/01/19 03:13:00;;;;;;;63.53;24.23;;;;;;;;;;5105037;28;20086;-67
2022/01/19 03:15:27;;;;;;;63.13;25.02;;;;;;;;;;5071631;28;20036;-67
2022/01/19 03:17:57;;;;;;;68.35;25.13;;;;;;;;;;5073059;28;20112;-67
2022/01/19 03:20:24;;;;;;;71.47;24.50;;;;;;;;;;5071967;28;20796;-67
2022/01/19 03:23:01;;;;;;;73.55;25.80;;;;;;;;;;5071333;28;20045;-67
2022/01/19 03:25:27;;;;;;;62.03;26.27;;;;;;;;;;5071340;28;20399;-67
2022/01/19 03:27:53;;;;;;;64.00;23.60;;;;;;;;;;5071320;28;20146;-67
2022/01/19 03:30:20;;;;;;;70.25;23.95;;;;;;;;;;5071017;28;20461;-67
2022/01/19 03:32:46;;;;;;;63.85;25.63;;;;;;;;;;5071421;28;20042;-67
2022/01/19 03:35:13;;;;;;;67.70;24.67;;;;;;;;;;5072672;28;20044;-67
2022/01/19 03:37:39;;;;;;;64.63;25.40;;;;;;;;;;5071262;28;20084;-67
2022/01/19 03:40:07;;;;;;;70.82;26.15;;;;;;;;;;5071115;28;20076;-67
2022/01/19 03:42:33;;;;;;;67.25;25.08;;;;;;;;;;5071305;28;20036;-67
2022/01/19 03:44:59;;;;;;;64.78;24.92;;;;;;;;;;5071084;28;20136;-67
2022/01/19 03:47:27;;;;;;;54.45;23.58;;;;;;;;;;5070761;28;20573;-67
2022/01/19 03:49:53;;;;;;;54.83;23.70;;;;;;;;;;5071445;28;20066;-67
2022/01/19 03:52:19;;;;;;;62.20;25.58;;;;;;;;;;5071118;28;20046;-67
2022/01/19 03:54:45;;;;;;;55.40;23.10;;;;;;;;;;5070450;28;20101;-67
2022/01/19 03:57:12;;;;;;;63.10;24.58;;;;;;;;;;5070991;28;20048;-67
2022/01/19 03:59:38;;;;;;;60.90;24.23;;;;;;;;;;5070771;28;20407;-67
2022/01/19 04:02:05;;;;;;;60.63;24.48;;;;;;;;;;5070581;28;20040;-67
2022/01/19 04:09:33;;;;;;;58.08;24.77;;;;;;;;;;5070002;28;19924;-67
2022/01/19 04:11:59;;;;;;;55.47;23.92;;;;;;;;;;5070910;28;20043;-67
2022/01/19 04:14:25;;;;;;;55.28;23.13;;;;;;;;;;5072380;28;20043;-67
2022/01/19 04:16:56;;;;;;;56.22;23.75;;;;;;;;;;5070169;28;20360;-67
2022/01/19 04:21:49;;;;;;;60.08;23.75;;;;;;;;;;5070924;28;20044;-67
2022/01/19 04:24:15;;;;;;;55.50;22.77;;;;;;;;;;5071097;28;20480;-67
2022/01/19 04:26:42;;;;;;;56.28;23.60;;;;;;;;;;5071522;28;20052;-67
2022/01/19 04:29:08;;;;;;;62.25;25.05;;;;;;;;;;5071752;28;20040;-67
2022/01/19 04:31:34;;;;;;;55.35;23.02;;;;;;;;;;5069904;28;20072;-67
2022/01/19 04:34:04;;;;;;;59.35;22.88;;;;;;;;;;5070371;28;20044;-67
2022/01/19 04:36:48;;;;;;;53.33;22.13;;;;;;;;;;5070377;28;20048;-67
2022/01/19 05:05:31;;;;;;;51.05;22.40;;;;;;;;;;5103857;28;20054;-66
2022/01/19 05:08:04;;;;;;;53.85;23.02;;;;;;;;;;5069484;28;20044;-66
2022/01/19 05:15:50;;;;;;;51.40;23.05;;;;;;;;;;5103189;28;20185;-67
2022/01/19 05:18:17;;;;;;;54.33;23.58;;;;;;;;;;5071382;28;20105;-67
2022/01/19 05:20:45;;;;;;;63.38;24.95;;;;;;;;;;5070255;28;20052;-67
2022/01/19 05:23:12;;;;;;;53.45;24.20;;;;;;;;;;5069373;28;20655;-67
2022/01/19 05:25:38;;;;;;;57.70;23.95;;;;;;;;;;5065355;28;20044;-67
2022/01/19 05:28:04;;;;;;;53.38;23.40;;;;;;;;;;5049584;28;20056;-67
2022/01/19 05:30:30;;;;;;;53.90;23.65;;;;;;;;;;5049440;28;20052;-67
2022/01/19 05:32:56;;;;;;;53.75;24.48;;;;;;;;;;5050163;28;20743;-67
2022/01/19 05:35:24;;;;;;;54.35;23.42;;;;;;;;;;5050031;28;20049;-67
2022/01/19 05:37:50;;;;;;;59.35;23.05;;;;;;;;;;5086067;28;20037;-67
2022/01/19 05:40:17;;;;;;;58.72;23.95;;;;;;;;;;5053717;28;20408;-67
2022/01/19 05:42:43;;;;;;;53.88;25.02;;;;;;;;;;5053610;28;20045;-67
2022/01/19 05:45:09;;;;;;;53.83;24.65;;;;;;;;;;5054163;28;20537;-67
2022/01/19 05:47:35;;;;;;;52.15;24.08;;;;;;;;;;5055000;28;20041;-67
2022/01/19 05:50:02;;;;;;;56.22;24.65;;;;;;;;;;5087096;28;20041;-67
2022/01/19 05:52:28;;;;;;;59.47;24.73;;;;;;;;;;5054316;28;20045;-67
2022/01/19 05:54:54;;;;;;;59.85;25.67;;;;;;;;;;5054827;28;20071;-67
2022/01/19 05:57:20;;;;;;;54.28;23.75;;;;;;;;;;5054371;28;20048;-67
2022/01/19 05:59:46;;;;;;;54.72;23.95;;;;;;;;;;5053807;28;20041;-67
2022/01/19 06:02:13;;;;;;;52.72;24.52;;;;;;;;;;5053243;28;20056;-67
2022/01/19 06:04:39;;;;;;;61.17;25.35;;;;;;;;;;5053012;28;20110;-67
2022/01/19 06:07:05;;;;;;;59.20;26.35;;;;;;;;;;5052099;28;20544;-67
2022/01/19 06:09:37;;;;;;;61.58;25.13;;;;;;;;;;5053220;28;20041;-67
2022/01/19 06:12:04;;;;;;;56.15;26.65;;;;;;;;;;5054530;28;20045;-67
2022/01/19 06:14:31;;;;;;;62.25;25.95;;;;;;;;;;5052218;28;20040;-67
2022/01/19 06:16:57;;;;;;;62.72;26.33;;;;;;;;;;5053972;28;20122;-67
2022/01/19 06:19:23;;;;;;;57.83;26.42;;;;;;;;;;5052615;28;20059;-67
2022/01/19 06:21:50;;;;;;;65.03;26.58;;;;;;;;;;5052382;28;20476;-66
2022/01/19 06:24:17;;;;;;;60.80;25.63;;;;;;;;;;5052483;28;20052;-66
2022/01/19 06:26:43;;;;;;;66.00;26.48;;;;;;;;;;5066339;28;20846;-66
2022/01/19 06:29:09;;;;;;;61.30;26.35;;;;;;;;;;5071437;28;20040;-67
2022/01/19 06:31:35;;;;;;;63.22;25.83;;;;;;;;;;5073919;28;20123;-67
2022/01/19 06:34:01;;;;;;;59.67;26.63;;;;;;;;;;5072564;28;20045;-67
2022/01/19 06:36:27;;;;;;;60.78;26.30;;;;;;;;;;5071893;28;20127;-67
2022/01/19 06:38:53;;;;;;;58.10;25.77;;;;;;;;;;5072773;28;20532;-67
2022/01/19 06:41:19;;;;;;;61.83;26.05;;;;;;;;;;5072240;28;20041;-67
2022/01/19 06:43:45;;;;;;;60.10;25.08;;;;;;;;;;5069561;28;20127;-67
2022/01/19 06:46:11;;;;;;;57.08;24.67;;;;;;;;;;5071171;28;20483;-67
2022/01/19 06:48:37;;;;;;;59.03;25.05;;;;;;;;;;5070064;28;20044;-67
2022/01/19 06:51:03;;;;;;;54.70;24.80;;;;;;;;;;5071046;28;20040;-67
2022/01/19 06:53:29;;;;;;;51.08;23.73;;;;;;;;;;5072561;28;20425;-67
2022/01/19 06:55:57;;;;;;;53.40;25.45;;;;;;;;;;5071603;28;20064;-67
2022/01/19 06:58:28;;;;;;;57.60;26.80;;;;;;;;;;5070831;28;20083;-67
2022/01/19 07:00:55;;;;;;;58.25;25.50;;;;;;;;;;5071596;28;20510;-67
2022/01/19 07:03:21;;;;;;;56.60;25.58;;;;;;;;;;5071716;28;20398;-67
2022/01/19 07:05:47;;;;;;;56.25;25.08;;;;;;;;;;5071365;28;20101;-66
2022/01/19 07:08:14;;;;;;;56.55;25.17;;;;;;;;;;5071464;28;20459;-66
2022/01/19 07:10:40;;;;;;;49.85;24.48;;;;;;;;;;5073396;28;20457;-67
2022/01/19 07:13:06;;;;;;;57.00;24.75;;;;;;;;;;5071853;28;20032;-67
2022/01/19 07:15:32;;;;;;;52.42;22.85;;;;;;;;;;5071711;28;20036;-66
2022/01/19 07:17:58;;;;;;;54.08;23.52;;;;;;;;;;5072675;28;20541;-67
2022/01/19 07:20:25;;;;;;;54.88;24.05;;;;;;;;;;5071861;28;20135;-67
2022/01/19 07:22:51;;;;;;;53.25;23.15;;;;;;;;;;5072604;28;20036;-66
2022/01/19 07:25:17;;;;;;;55.78;23.85;;;;;;;;;;5070460;28;20123;-66
2022/01/19 07:27:44;;;;;;;52.65;23.95;;;;;;;;;;5071417;28;20109;-66
2022/01/19 07:30:10;;;;;;;49.50;23.75;;;;;;;;;;5069930;28;20044;-66
2022/01/19 07:32:36;;;;;;;48.08;23.92;;;;;;;;;;5071068;28;20043;-67
2022/01/19 07:35:03;;;;;;;49.78;22.55;;;;;;;;;;5068509;28;20035;-66
2022/01/19 07:37:29;;;;;;;51.55;22.52;;;;;;;;;;5072131;28;20048;-66
2022/01/19 07:39:57;;;;;;;51.85;22.38;;;;;;;;;;5064951;28;20045;-66
2022/01/19 07:42:23;;;;;;;50.55;22.35;;;;;;;;;;5062984;28;20114;-66
2022/01/19 07:44:50;;;;;;;51.55;23.23;;;;;;;;;;5059314;28;20751;-66
2022/01/19 07:47:16;;;;;;;54.75;23.70;;;;;;;;;;5069962;28;20043;-67
2022/01/19 07:49:42;;;;;;;55.08;22.42;;;;;;;;;;5068466;28;20036;-67
2022/01/19 07:52:08;;;;;;;49.78;23.30;;;;;;;;;;5070035;28;20059;-67
2022/01/19 07:54:34;;;;;;;55.83;23.17;;;;;;;;;;5059253;28;20578;-67
2022/01/19 07:57:00;;;;;;;49.17;22.02;;;;;;;;;;5061665;28;20037;-67
2022/01/19 07:59:26;;;;;;;58.30;23.08;;;;;;;;;;5070204;28;20041;-67
2022/01/19 08:01:56;;;;;;;51.42;22.27;;;;;;;;;;5067516;28;20099;-67
2022/01/19 08:04:23;;;;;;;53.13;23.65;;;;;;;;;;5069545;28;20059;-67
2022/01/19 08:06:54;;;;;;;51.13;22.85;;;;;;;;;;5070051;28;20036;-66
2022/01/19 08:09:20;;;;;;;43.85;20.67;;;;;;;;;;5096667;28;20053;-70
2022/01/19 08:11:47;;;;;;;50.85;22.95;;;;;;;;;;5065436;28;20036;-66
2022/01/19 08:14:13;;;;;;;48.95;22.45;;;;;;;;;;5061175;28;20430;-67
2022/01/19 08:16:39;;;;;;;48.47;21.75;;;;;;;;;;5101977;28;20043;-67
2022/01/19 08:19:05;;;;;;;50.50;22.85;;;;;;;;;;5070173;28;20044;-67
2022/01/19 08:21:31;;;;;;;49.58;22.45;;;;;;;;;;5070405;28;20055;-66
2022/01/19 08:23:57;;;;;;;47.35;22.23;;;;;;;;;;5069449;28;20142;-66
2022/01/19 08:26:23;;;;;;;51.17;23.10;;;;;;;;;;5067258;28;20052;-66
2022/01/19 08:28:49;;;;;;;55.55;24.35;;;;;;;;;;5063571;28;20048;-66
2022/01/19 08:31:15;;;;;;;52.67;22.77;;;;;;;;;;5065918;28;20048;-66
2022/01/19 08:33:41;;;;;;;52.10;24.00;;;;;;;;;;5068346;28;20063;-66
2022/01/19 08:36:07;;;;;;;48.33;22.45;;;;;;;;;;5051566;28;20040;-66
2022/01/19 08:38:34;;;;;;;47.38;23.23;;;;;;;;;;5068028;28;20071;-67
2022/01/19 08:41:00;;;;;;;53.05;23.58;;;;;;;;;;5068718;28;20052;-66
2022/01/19 08:43:26;;;;;;;48.22;23.02;;;;;;;;;;5068478;28;20044;-66
2022/01/19 08:45:53;;;;;;;49.60;23.27;;;;;;;;;;5068618;28;20123;-67
2022/01/19 08:48:19;;;;;;;50.63;23.65;;;;;;;;;;5068408;28;20410;-66
2022/01/19 08:50:45;;;;;;;50.72;24.83;;;;;;;;;;5068272;28;20032;-67
2022/01/19 08:53:12;;;;;;;52.00;24.02;;;;;;;;;;5067300;28;20032;-66
2022/01/19 08:55:38;;;;;;;53.65;24.20;;;;;;;;;;5068871;28;20482;-66
2022/01/19 08:58:05;;;;;;;49.88;23.83;;;;;;;;;;5067255;28;20048;-67
2022/01/19 09:00:31;;;;;;;59.75;24.20;;;;;;;;;;5067299;28;20045;-66
2022/01/19 09:02:57;;;;;;;53.90;24.60;;;;;;;;;;5067979;28;20352;-68
2022/01/19 09:05:23;;;;;;;54.35;23.42;;;;;;;;;;5066366;28;20044;-67
2022/01/19 09:07:49;;;;;;;48.45;24.20;;;;;;;;;;5066984;28;20110;-68
2022/01/19 09:10:16;;;;;;;54.15;24.45;;;;;;;;;;5065537;28;20127;-67
2022/01/19 09:12:43;;;;;;;48.65;23.67;;;;;;;;;;5069492;28;20048;-67
2022/01/19 09:15:10;;;;;;;55.28;24.80;;;;;;;;;;5073268;28;20190;-67
2022/01/19 09:17:36;;;;;;;50.95;24.02;;;;;;;;;;5071422;28;20434;-66
2022/01/19 09:20:05;;;;;;;48.35;24.55;;;;;;;;;;5071171;28;20040;-67
2022/01/19 09:22:31;;;;;;;58.90;26.02;;;;;;;;;;5069450;28;20611;-66
2022/01/19 09:24:57;;;;;;;54.63;25.52;;;;;;;;;;5071637;28;20115;-67
2022/01/19 09:27:23;;;;;;;55.03;25.45;;;;;;;;;;5070201;28;20130;-68
2022/01/19 09:29:49;;;;;;;54.05;25.52;;;;;;;;;;5070912;28;20500;-66
2022/01/19 09:32:16;;;;;;;50.67;24.27;;;;;;;;;;5074313;28;20127;-68
2022/01/19 09:34:47;;;;;;;55.42;26.02;;;;;;;;;;5071222;28;20098;-69
2022/01/19 09:37:14;;;;;;;52.73;27.57;;;;;;;;;;5070329;28;20044;-69
2022/01/19 09:39:40;;;;;;;59.20;26.77;;;;;;;;;;5064841;28;20297;-68
2022/01/19 09:42:06;;;;;;;57.85;27.23;;;;;;;;;;5070838;28;20102;-67
2022/01/19 09:44:32;;;;;;;61.75;28.17;;;;;;;;;;5071383;28;20129;-67
2022/01/19 09:46:59;;;;;;;57.35;27.40;;;;;;;;;;5071412;28;20045;-67
2022/01/19 09:49:25;;;;;;;59.05;27.92;;;;;;;;;;5053756;28;20076;-68
2022/01/19 09:51:53;;;;;;;61.65;29.00;;;;;;;;;;5072820;28;20048;-67
2022/01/19 09:54:20;;;;;;;55.97;28.15;;;;;;;;;;5072237;28;20036;-66
2022/01/19 09:56:47;;;;;;;56.92;26.52;;;;;;;;;;5075276;28;20048;-67
2022/01/19 09:59:15;;;;;;;59.70;27.52;;;;;;;;;;5054770;28;20040;-66
2022/01/19 10:01:58;;;;;;;54.83;26.63;;;;;;;;;;5070739;28;20076;-66
2022/01/19 10:04:28;;;;;;;53.80;25.90;;;;;;;;;;5071435;28;20052;-66
2022/01/19 10:07:11;;;;;;;59.42;28.35;;;;;;;;;;5071049;28;20041;-66
2022/01/19 10:09:54;;;;;;;57.50;28.00;;;;;;;;;;5068961;28;20040;-66
2022/01/19 10:18:10;;;;;;;56.45;26.73;;;;;;;;;;5071030;28;20140;-66
2022/01/19 10:20:36;;;;;;;58.25;28.08;;;;;;;;;;5073309;28;20053;-66
2022/01/19 10:23:02;;;;;;;57.00;27.90;;;;;;;;;;5072322;28;20567;-66
2022/01/19 10:25:48;;;;;;;63.67;28.83;;;;;;;;;;5072874;28;20045;-66
2022/01/19 10:28:14;;;;;;;62.50;29.08;;;;;;;;;;5071268;28;20087;-68
2022/01/19 10:30:41;;;;;;;59.53;28.50;;;;;;;;;;5070824;28;20040;-67
2022/01/19 10:33:07;;;;;;;62.28;29.08;;;;;;;;;;5078877;28;20044;-67
2022/01/19 10:35:36;;;;;;;63.00;30.08;;;;;;;;;;5071634;28;20048;-67
2022/01/19 10:38:11;;;;;;;62.67;29.85;;;;;;;;;;5071899;28;20466;-67
2022/01/19 10:40:38;;;;;;;62.58;30.23;;;;;;;;;;5059884;28;20052;-67
2022/01/19 10:43:23;;;;;;;61.83;30.23;;;;;;;;;;5071695;28;20454;-67
2022/01/19 10:45:49;;;;;;;55.35;28.90;;;;;;;;;;5071504;28;20059;-67
2022/01/19 10:48:29;;;;;;;60.55;30.35;;;;;;;;;;5070823;28;20048;-67
2022/01/19 10:51:05;;;;;;;62.17;29.58;;;;;;;;;;5058932;28;20040;-67
2022/01/19 10:53:31;;;;;;;66.88;31.13;;;;;;;;;;5071079;28;20048;-68
2022/01/19 10:55:57;;;;;;;64.05;31.20;;;;;;;;;;5070595;28;20052;-67
2022/01/19 10:58:24;;;;;;;65.15;32.03;;;;;;;;;;5071541;28;20048;-67
2022/01/19 11:00:54;;;;;;;65.47;33.50;;;;;;;;;;5072574;28;20647;-67
2022/01/19 11:03:25;;;;;;;69.68;32.15;;;;;;;;;;5069572;28;20555;-67
2022/01/19 11:05:52;;;;;;;67.88;32.53;;;;;;;;;;5071158;28;20380;-67
2022/01/19 11:08:20;;;;;;;62.88;30.83;;;;;;;;;;5070111;28;20109;-67
2022/01/19 11:10:51;;;;;;;68.50;31.70;;;;;;;;;;5070142;28;20390;-67
2022/01/19 11:13:27;;;;;;;65.97;31.25;;;;;;;;;;5072448;28;20096;-67
2022/01/19 11:15:53;;;;;;;76.45;33.75;;;;;;;;;;5070989;28;20486;-67
2022/01/19 11:18:25;;;;;;;71.43;33.03;;;;;;;;;;5070606;28;20435;-67
2022/01/19 11:20:52;;;;;;;77.85;34.33;;;;;;;;;;5069773;28;20402;-67
2022/01/19 11:23:31;;;;;;;83.70;35.25;;;;;;;;;;5070125;28;20040;-67
2022/01/19 11:25:59;;;;;;;80.35;34.85;;;;;;;;;;5055623;28;20162;-67
2022/01/19 11:28:33;;;;;;;83.68;36.72;;;;;;;;;;5070303;28;20046;-67
2022/01/19 11:30:59;;;;;;;80.07;37.90;;;;;;;;;;5062615;28;20040;-67
2022/01/19 11:33:27;;;;;;;87.10;37.30;;;;;;;;;;5068997;28;20063;-67
2022/01/19 11:35:57;;;;;;;76.85;37.67;;;;;;;;;;5068214;28;20036;-67
2022/01/19 11:38:40;;;;;;;78.43;35.50;;;;;;;;;;5066780;28;20051;-67
2022/01/19 11:41:09;;;;;;;88.47;36.92;;;;;;;;;;5069184;28;20052;-68
2022/01/19 11:43:37;;;;;;;89.05;38.97;;;;;;;;;;5068911;28;20044;-67
2022/01/19 11:46:03;;;;;;;91.30;39.33;;;;;;;;;;5070452;28;20421;-67
2022/01/19 11:48:35;;;;;;;94.15;39.63;;;;;;;;;;5068609;28;20040;-67
2022/01/19 11:51:20;;;;;;;93.30;39.47;;;;;;;;;;5069567;28;20125;-67
2022/01/19 11:54:05;;;;;;;91.22;39.17;;;;;;;;;;5052336;28;20408;-66
2022/01/19 11:56:31;;;;;;;90.70;40.40;;;;;;;;;;5071056;28;20137;-66
2022/01/19 11:59:25;;;;;;;88.97;38.03;;;;;;;;;;5064375;28;20037;-66
2022/01/19 12:01:51;;;;;;;97.03;40.85;;;;;;;;;;5065934;28;20081;-66
2022/01/19 12:04:18;;;;;;;94.95;42.35;;;;;;;;;;5069924;28;20036;-66
2022/01/19 12:06:45;;;;;;;92.65;38.90;;;;;;;;;;5069908;28;20518;-66
2022/01/19 12:09:12;;;;;;;92.95;40.05;;;;;;;;;;5059889;28;20048;-67
2022/01/19 12:11:45;;;;;;;95.20;41.15;;;;;;;;;;5062291;28;20047;-66
2022/01/19 12:14:17;;;;;;;108.40;44.05;;;;;;;;;;5068854;28;20036;-66
2022/01/19 12:17:03;;;;;;;95.40;38.35;;;;;;;;;;5070444;28;20040;-68
2022/01/19 12:19:36;;;;;;;91.25;39.47;;;;;;;;;;5069826;28;20052;-67
2022/01/19 12:22:12;;;;;;;91.60;41.50;;;;;;;;;;5070966;28;20552;-66
2022/01/19 12:24:41;;;;;;;92.00;40.90;;;;;;;;;;5068991;28;20036;-68
2022/01/19 12:27:07;;;;;;;89.95;40.70;;;;;;;;;;5052568;28;20057;-67
2022/01/19 12:29:33;;;;;;;83.15;35.33;;;;;;;;;;5070473;28;20056;-66
2022/01/19 12:32:00;;;;;;;90.40;39.63;;;;;;;;;;5069250;28;20079;-66
2022/01/19 12:34:27;;;;;;;88.93;39.72;;;;;;;;;;5074077;28;20151;-67
2022/01/19 12:36:54;;;;;;;96.28;41.00;;;;;;;;;;5070388;28;20094;-66
2022/01/19 12:39:27;;;;;;;98.88;42.05;;;;;;;;;;5070013;28;20072;-65
2022/01/19 12:41:56;;;;;;;92.60;40.05;;;;;;;;;;5069590;28;20048;-67
2022/01/19 12:44:41;;;;;;;101.55;42.00;;;;;;;;;;5068285;28;20040;-66
2022/01/19 12:47:27;;;;;;;94.40;39.40;;;;;;;;;;5068576;28;20048;-68
2022/01/19 12:49:54;;;;;;;85.55;38.80;;;;;;;;;;5067176;28;20098;-68
2022/01/19 12:52:22;;;;;;;80.95;38.60;;;;;;;;;;5069544;28;20044;-68
2022/01/19 12:54:48;;;;;;;84.05;38.28;;;;;;;;;;5068310;28;20103;-68
2022/01/19 12:57:15;;;;;;;86.32;39.33;;;;;;;;;;5068721;28;20040;-68
2022/01/19 12:59:46;;;;;;;93.20;41.58;;;;;;;;;;5067996;28;20147;-68
2022/01/19 13:02:13;;;;;;;86.78;39.30;;;;;;;;;;5068983;28;20040;-68
2022/01/19 13:04:40;;;;;;;87.95;38.88;;;;;;;;;;5068047;28;20723;-68
2022/01/19 13:07:26;;;;;;;81.95;38.35;;;;;;;;;;5068278;28;20048;-68
2022/01/19 13:10:18;;;;;;;87.22;38.05;;;;;;;;;;5069691;28;20448;-69
2022/01/19 13:13:06;;;;;;;84.18;37.88;;;;;;;;;;5068223;28;20040;-68
2022/01/19 13:15:43;;;;;;;86.88;38.05;;;;;;;;;;5069196;28;20410;-68
2022/01/19 13:18:09;;;;;;;80.97;37.53;;;;;;;;;;5058946;28;20037;-68
2022/01/19 13:20:35;;;;;;;89.13;37.40;;;;;;;;;;5068672;28;20036;-69
2022/01/19 13:23:04;;;;;;;85.32;35.00;;;;;;;;;;5069482;28;20045;-66
2022/01/19 13:25:31;;;;;;;84.50;36.53;;;;;;;;;;5068535;28;20056;-67
2022/01/19 13:27:59;;;;;;;76.50;35.45;;;;;;;;;;5067951;28;20494;-66
2022/01/19 13:30:26;;;;;;;82.38;36.17;;;;;;;;;;5070053;28;20471;-67
2022/01/19 13:32:52;;;;;;;84.00;36.88;;;;;;;;;;5070057;28;20048;-66
2022/01/19 13:35:18;;;;;;;80.85;36.58;;;;;;;;;;5069931;28;20434;-67
2022/01/19 13:37:51;;;;;;;79.93;34.72;;;;;;;;;;5068900;28;20044;-67
2022/01/19 13:40:19;;;;;;;74.95;34.33;;;;;;;;;;5070226;28;20364;-66
2022/01/19 13:42:47;;;;;;;67.47;32.30;;;;;;;;;;5070115;28;20736;-65
2022/01/19 13:45:24;;;;;;;71.78;32.92;;;;;;;;;;5068316;28;20102;-68
2022/01/19 13:48:19;;;;;;;73.97;33.03;;;;;;;;;;5067629;28;20131;-68
2022/01/19 13:50:48;;;;;;;72.70;32.55;;;;;;;;;;5052165;28;20055;-67
2022/01/19 13:53:15;;;;;;;72.03;33.13;;;;;;;;;;5067776;28;20139;-68
2022/01/19 13:55:41;;;;;;;69.35;32.40;;;;;;;;;;5067124;28;20060;-68
2022/01/19 13:58:09;;;;;;;70.93;32.45;;;;;;;;;;5068841;28;20172;-68
2022/01/19 14:00:35;;;;;;;69.75;31.55;;;;;;;;;;5070813;28;20055;-68
2022/01/19 14:03:06;;;;;;;70.68;31.65;;;;;;;;;;5071165;28;20037;-68
2022/01/19 14:05:40;;;;;;;60.13;29.33;;;;;;;;;;5070930;28;20505;-68
2022/01/19 14:08:07;;;;;;;59.85;29.05;;;;;;;;;;5070385;28;20163;-68
2022/01/19 14:10:50;;;;;;;66.82;30.02;;;;;;;;;;5073861;28;20044;-67
2022/01/19 14:13:28;;;;;;;61.95;27.80;;;;;;;;;;5072298;28;20032;-68
2022/01/19 14:16:17;;;;;;;60.22;28.42;;;;;;;;;;5072507;28;20076;-68
2022/01/19 14:19:03;;;;;;;69.32;31.40;;;;;;;;;;5054863;28;20052;-68
2022/01/19 14:21:30;;;;;;;68.68;29.42;;;;;;;;;;5071011;28;20040;-68
2022/01/19 14:23:59;;;;;;;64.95;29.55;;;;;;;;;;5053920;28;20133;-68
2022/01/19 14:26:26;;;;;;;69.43;31.58;;;;;;;;;;5073064;28;20052;-68
2022/01/19 14:29:11;;;;;;;76.82;31.85;;;;;;;;;;5071339;28;20379;-68
2022/01/19 14:31:50;;;;;;;68.05;31.60;;;;;;;;;;5095474;28;20044;-68
2022/01/19 14:34:16;;;;;;;72.57;32.22;;;;;;;;;;5072493;28;20773;-68
2022/01/19 14:36:42;;;;;;;71.30;29.95;;;;;;;;;;5070917;28;20089;-67
2022/01/19 14:39:09;;;;;;;75.80;34.08;;;;;;;;;;5071547;28;20688;-68
2022/01/19 14:41:37;;;;;;;79.57;34.28;;;;;;;;;;5071113;28;20093;-68
2022/01/19 14:44:20;;;;;;;73.18;32.53;;;;;;;;;;5070851;28;20636;-68
2022/01/19 14:47:04;;;;;;;63.08;31.60;;;;;;;;;;5071526;28;20044;-68
2022/01/19 14:49:31;;;;;;;67.63;31.70;;;;;;;;;;5069795;28;20102;-68
2022/01/19 14:51:57;;;;;;;64.47;30.40;;;;;;;;;;5070824;28;20439;-68
2022/01/19 14:54:25;;;;;;;65.05;29.88;;;;;;;;;;5071557;28;20052;-68
2022/01/19 14:56:51;;;;;;;64.20;29.17;;;;;;;;;;5071203;28;20416;-68
2022/01/19 14:59:19;;;;;;;67.07;30.05;;;;;;;;;;5071045;28;20052;-68
2022/01/19 15:01:52;;;;;;;66.70;31.45;;;;;;;;;;5071624;28;20724;-67
2022/01/19 15:04:18;;;;;;;68.20;31.50;;;;;;;;;;5071536;28;20568;-68
2022/01/19 15:06:44;;;;;;;70.22;30.45;;;;;;;;;;5071845;28;20032;-68
2022/01/19 15:09:11;;;;;;;65.15;32.03;;;;;;;;;;5071097;28;20732;-67
2022/01/19 15:11:37;;;;;;;77.30;31.83;;;;;;;;;;5062645;28;20040;-68
2022/01/19 15:14:03;;;;;;;72.88;29.52;;;;;;;;;;5070271;28;20169;-68
2022/01/19 15:16:29;;;;;;;75.57;33.28;;;;;;;;;;5072351;28;20075;-68
2022/01/19 15:18:55;;;;;;;77.03;33.95;;;;;;;;;;5072697;28;20475;-68
2022/01/19 15:21:22;;;;;;;74.95;33.25;;;;;;;;;;5069222;28;20045;-68
2022/01/19 15:23:49;;;;;;;78.05;33.38;;;;;;;;;;5070852;28;20123;-68
2022/01/19 15:26:16;;;;;;;71.15;32.13;;;;;;;;;;5059912;28;20384;-68
2022/01/19 15:28:43;;;;;;;71.28;30.27;;;;;;;;;;5069673;28;20113;-68
2022/01/19 15:31:11;;;;;;;77.70;34.22;;;;;;;;;;5070529;28;20047;-68
2022/01/19 15:33:37;;;;;;;78.55;33.72;;;;;;;;;;5054020;28;20033;-68
2022/01/19 15:36:04;;;;;;;75.07;33.05;;;;;;;;;;5070167;28;20048;-68
2022/01/19 15:38:30;;;;;;;73.72;32.22;;;;;;;;;;5070962;28;20051;-68
2022/01/19 15:40:56;;;;;;;68.65;31.15;;;;;;;;;;5070076;28;20048;-67
2022/01/19 15:43:22;;;;;;;66.93;29.50;;;;;;;;;;5070748;28;20386;-68
2022/01/19 15:45:49;;;;;;;53.33;24.90;;;;;;;;;;5070167;28;20047;-68
2022/01/19 15:48:16;;;;;;;63.65;27.65;;;;;;;;;;5071722;28;20044;-68
2022/01/19 15:50:46;;;;;;;65.60;27.52;;;;;;;;;;5069897;28;20043;-68
2022/01/19 15:53:12;;;;;;;60.75;25.52;;;;;;;;;;5069680;28;20047;-67
2022/01/19 15:55:39;;;;;;;51.92;24.05;;;;;;;;;;5068165;28;20041;-68